createdAt,value
2022-11-29T00:12:26.777Z,39.53
2022-11-29T00:27:28.621Z,39.40
2022-11-29T00:42:30.497Z,39.97
2022-11-29T00:57:32.457Z,38.90
2022-11-29T01:12:39.439Z,38.50
2022-11-29T01:27:41.954Z,37.80
2022-11-29T01:42:43.793Z,35.38
2022-11-29T01:57:45.837Z,35.53
2022-11-29T02:13:08.193Z,32.95
2022-11-29T02:28:10.008Z,32.42
2022-11-29T02:43:24.690Z,29.83
2022-11-29T02:58:43.433Z,31.85
2022-11-29T03:14:06.339Z,30.67
2022-11-29T03:29:36.000Z,32.75
2022-11-29T03:44:50.809Z,29.08
2022-11-29T04:00:05.644Z,31.40
2022-11-29T04:15:16.389Z,30.30
2022-11-29T04:30:21.580Z,30.48
2022-11-29T04:45:48.673Z,29.23
2022-11-29T05:01:05.752Z,27.97
2022-11-29T05:16:18.234Z,27.93
2022-11-29T05:31:59.283Z,27.95
2022-11-29T05:47:10.277Z,26.45
2022-11-29T06:02:24.134Z,30.02
2022-11-29T06:18:03.369Z,30.65
2022-11-29T06:33:22.511Z,31.33
2022-11-29T06:48:26.697Z,30.02
2022-11-29T07:03:53.022Z,30.70
2022-11-29T07:18:58.000Z,30.90
2022-11-29T07:34:18.906Z,31.33
2022-11-29T07:49:20.746Z,31.92
2022-11-29T08:04:22.635Z,32.03
2022-11-29T08:19:24.520Z,33.90
2022-11-29T08:34:26.706Z,31.60
2022-11-29T08:49:28.592Z,33.53
2022-11-29T09:04:30.436Z,33.20
2022-11-29T09:19:32.661Z,32.60
2022-11-29T09:34:34.596Z,33.47
2022-11-29T09:49:56.759Z,33.83
2022-11-29T10:05:30.191Z,35.20
2022-11-29T10:20:41.441Z,32.25
2022-11-29T10:35:47.425Z,27.73
2022-11-29T10:50:51.108Z,28.58
2022-11-29T11:06:02.578Z,29.77
2022-11-29T11:21:08.161Z,31.67
2022-11-29T11:36:36.232Z,27.98
2022-11-29T11:51:44.153Z,30.40
2022-11-29T12:06:57.415Z,30.13
2022-11-29T12:22:04.479Z,26.90
2022-11-29T12:37:14.185Z,25.67
2022-11-29T12:52:15.987Z,27.88
2022-11-29T13:07:34.568Z,27.25
2022-11-29T13:38:26.822Z,23.45
2022-11-29T13:53:48.654Z,17.20
2022-11-29T14:24:37.276Z,19.63
2022-11-29T14:39:47.108Z,20.48
2022-11-29T14:54:58.402Z,22.17
2022-11-29T15:10:04.360Z,21.38
2022-11-29T15:25:14.002Z,20.90
2022-11-29T15:40:26.451Z,20.63
2022-11-29T15:55:28.941Z,21.30
2022-11-29T16:27:20.049Z,23.88
2022-11-29T16:42:28.227Z,25.27
2022-11-29T16:57:31.282Z,23.60
2022-11-29T17:12:33.382Z,23.25
2022-11-29T17:49:43.979Z,27.35
2022-11-29T18:04:46.204Z,25.02
2022-11-29T18:19:48.388Z,28.25
2022-11-29T18:34:50.354Z,25.92
2022-11-29T18:49:52.235Z,30.65
2022-11-29T19:04:54.256Z,37.65
2022-11-29T19:19:56.198Z,36.67
2022-11-29T19:34:58.095Z,32.13
2022-11-29T19:50:02.489Z,39.38
2022-11-29T20:05:05.675Z,42.10
2022-11-29T20:20:08.210Z,44.47
2022-11-29T20:35:11.227Z,45.65
2022-11-29T20:50:24.942Z,47.95
2022-11-29T21:05:28.091Z,54.03
2022-11-29T21:20:30.241Z,52.70
2022-11-29T21:35:32.108Z,52.40
2022-11-29T21:50:34.016Z,54.92
2022-11-29T22:05:35.900Z,51.58
2022-11-29T22:20:37.775Z,51.53
2022-11-29T22:35:45.945Z,51.60
2022-11-29T22:50:47.798Z,53.30
2022-11-29T23:05:49.619Z,53.95
2022-11-29T23:20:51.544Z,56.17
2022-11-29T23:36:00.932Z,56.20
2022-11-29T23:51:02.881Z,51.50
